Time;durP1;ratioP1;P1;durP2;ratioP2;P2;SDS_P1;SDS_P2;PMS_P1;PMS_P2;Temp;Humidity;BMP_temperature;BMP_pressure;BME280_temperature;BME280_humidity;BME280_pressure;Samples;Min_cycle;Max_cycle;Signal;HPM_P1;HPM_P2
2021/07/18 00:01:06;;;;;;;10.60;3.83;;;19.30;97.30;;;;;;5055697;28;20192;-86
2021/07/18 00:03:32;;;;;;;8.27;3.67;;;19.20;97.30;;;;;;5055164;28;20230;-85
2021/07/18 00:05:57;;;;;;;8.67;3.43;;;19.20;97.30;;;;;;5054628;28;20212;-85
2021/07/18 00:08:23;;;;;;;7.40;3.10;;;19.20;97.30;;;;;;5052907;28;21053;-86
2021/07/18 00:10:51;;;;;;;7.87;3.87;;;19.10;97.30;;;;;;5053428;28;20200;-86
2021/07/18 00:13:19;;;;;;;6.23;3.40;;;19.10;97.30;;;;;;5053279;28;20175;-86
2021/07/18 00:15:45;;;;;;;8.67;3.70;;;19.10;97.30;;;;;;5053052;28;20778;-85
2021/07/18 00:18:11;;;;;;;8.00;3.60;;;19.00;97.30;;;;;;5052948;28;20476;-85
2021/07/18 00:20:37;;;;;;;8.20;3.70;;;19.00;97.30;;;;;;5053400;28;20927;-85
2021/07/18 00:23:02;;;;;;;12.47;4.30;;;19.00;97.30;;;;;;5052808;28;20478;-85
2021/07/18 00:25:28;;;;;;;9.57;4.13;;;18.90;97.30;;;;;;5052813;28;20211;-85
2021/07/18 00:27:54;;;;;;;8.60;4.03;;;18.90;97.30;;;;;;5072388;28;20171;-85
2021/07/18 00:30:20;;;;;;;7.03;3.67;;;18.90;97.30;;;;;;5060839;28;20538;-85
2021/07/18 00:32:45;;;;;;;11.23;3.83;;;18.90;97.30;;;;;;5052533;28;20195;-88
2021/07/18 00:35:11;;;;;;;10.13;3.57;;;18.80;97.30;;;;;;5053010;28;20186;-87
2021/07/18 00:37:37;;;;;;;12.83;4.10;;;18.80;97.30;;;;;;5053248;28;20180;-87
2021/07/18 00:40:07;;;;;;;12.50;4.10;;;18.80;97.30;;;;;;5054953;28;20759;-86
2021/07/18 00:42:33;;;;;;;11.27;4.17;;;18.70;97.30;;;;;;5053403;28;20199;-85
2021/07/18 00:44:58;;;;;;;8.20;4.60;;;18.70;97.30;;;;;;5054669;28;20410;-86
2021/07/18 00:47:26;;;;;;;8.60;3.50;;;18.70;97.30;;;;;;5052751;28;20424;-86
2021/07/18 00:49:51;;;;;;;7.73;3.97;;;18.60;97.30;;;;;;5052569;28;20222;-87
2021/07/18 00:52:17;;;;;;;13.90;4.00;;;18.60;97.30;;;;;;5052631;28;20446;-87
2021/07/18 00:54:43;;;;;;;8.60;4.10;;;18.60;97.30;;;;;;5052211;28;20233;-87
2021/07/18 00:57:09;;;;;;;8.90;3.77;;;18.50;97.30;;;;;;5051008;28;20418;-87
2021/07/18 00:59:36;;;;;;;9.03;3.87;;;18.50;97.30;;;;;;5051280;28;20187;-86
2021/07/18 01:02:02;;;;;;;9.17;3.93;;;18.50;97.30;;;;;;5050834;28;20199;-87
2021/07/18 01:04:27;;;;;;;12.80;3.70;;;18.50;97.30;;;;;;5050935;28;20853;-86
2021/07/18 01:06:53;;;;;;;9.40;3.97;;;18.50;97.30;;;;;;5050688;28;20417;-86
2021/07/18 01:09:20;;;;;;;8.50;3.97;;;18.50;97.30;;;;;;5050577;28;20388;-86
2021/07/18 01:11:46;;;;;;;8.83;4.10;;;18.40;97.30;;;;;;5051072;28;20437;-87
2021/07/18 01:14:12;;;;;;;7.70;3.53;;;18.40;97.30;;;;;;5050152;28;20414;-86
2021/07/18 01:16:38;;;;;;;12.27;4.67;;;18.40;97.30;;;;;;5050864;28;20525;-85
2021/07/18 01:19:04;;;;;;;9.83;4.07;;;18.30;97.30;;;;;;5050371;28;20172;-85
2021/07/18 01:21:31;;;;;;;11.93;4.70;;;18.20;97.30;;;;;;5052078;28;20771;-86
2021/07/18 01:23:57;;;;;;;10.10;4.17;;;18.20;97.30;;;;;;5051128;28;20450;-86
2021/07/18 01:26:22;;;;;;;8.67;4.00;;;18.20;97.30;;;;;;5051701;28;20860;-87
2021/07/18 01:28:49;;;;;;;12.20;4.60;;;18.10;97.30;;;;;;5053114;28;20414;-86
2021/07/18 01:31:15;;;;;;;9.50;3.90;;;18.10;97.30;;;;;;5053582;28;20206;-86
2021/07/18 01:33:41;;;;;;;11.83;4.57;;;18.00;97.30;;;;;;5051967;28;20943;-86
2021/07/18 01:36:07;;;;;;;16.13;5.40;;;18.00;97.30;;;;;;5051466;28;20441;-86
2021/07/18 01:38:32;;;;;;;16.03;5.57;;;18.00;97.30;;;;;;5051192;28;20214;-86
2021/07/18 01:40:58;;;;;;;11.30;4.70;;;18.00;97.30;;;;;;5072563;28;20287;-87
2021/07/18 01:43:24;;;;;;;19.80;5.57;;;17.90;97.30;;;;;;5051396;28;20206;-87
2021/07/18 01:45:49;;;;;;;13.00;5.10;;;17.90;97.30;;;;;;5051508;28;20176;-87
2021/07/18 01:48:15;;;;;;;15.47;4.87;;;17.90;97.30;;;;;;5051829;28;20589;-87
2021/07/18 01:50:41;;;;;;;10.83;5.43;;;17.90;97.30;;;;;;5050834;28;20204;-87
2021/07/18 01:53:07;;;;;;;10.73;5.17;;;17.80;97.30;;;;;;5052420;28;20540;-87
2021/07/18 01:55:33;;;;;;;13.10;5.50;;;17.80;97.30;;;;;;5051000;28;20176;-85
2021/07/18 01:57:59;;;;;;;11.40;4.70;;;17.80;97.30;;;;;;5071743;28;20430;-86
2021/07/18 02:00:25;;;;;;;9.13;4.90;;;17.70;97.30;;;;;;5051516;28;20797;-86
2021/07/18 02:02:52;;;;;;;11.27;4.87;;;17.70;97.30;;;;;;5048194;28;20224;-86
2021/07/18 02:05:18;;;;;;;11.33;5.47;;;17.70;97.30;;;;;;5049032;28;20422;-86
2021/07/18 02:07:45;;;;;;;13.83;4.93;;;17.70;97.30;;;;;;5051804;28;20532;-86
2021/07/18 02:10:11;;;;;;;14.90;5.10;;;17.70;97.30;;;;;;5051368;28;20800;-85
2021/07/18 02:12:37;;;;;;;7.97;4.73;;;17.60;97.30;;;;;;5051757;28;20481;-87
2021/07/18 02:15:11;;;;;;;13.93;6.03;;;17.60;97.30;;;;;;5051395;28;21031;-86
2021/07/18 02:17:37;;;;;;;12.63;4.67;;;17.50;97.30;;;;;;5051039;28;20426;-86
2021/07/18 02:20:06;;;;;;;10.93;5.33;;;17.50;97.30;;;;;;5051592;28;20410;-86
2021/07/18 02:22:44;;;;;;;10.03;4.70;;;17.50;97.30;;;;;;5050990;28;20290;-86
2021/07/18 02:25:11;;;;;;;10.50;4.83;;;17.50;97.30;;;;;;5033993;28;20414;-86
2021/07/18 02:27:37;;;;;;;11.67;5.27;;;17.40;97.30;;;;;;5051286;28;20435;-86
2021/07/18 02:30:12;;;;;;;8.17;4.73;;;17.40;97.30;;;;;;5051140;28;20418;-85
2021/07/18 02:32:38;;;;;;;13.50;4.63;;;17.40;97.30;;;;;;5050480;28;20278;-86
2021/07/18 02:35:06;;;;;;;9.50;4.90;;;17.40;97.30;;;;;;5050489;28;20430;-86
2021/07/18 02:37:32;;;;;;;14.53;4.57;;;17.30;97.30;;;;;;5055500;28;20180;-86
2021/07/18 02:39:58;;;;;;;12.37;4.80;;;17.20;97.30;;;;;;5046592;28;20433;-86
2021/07/18 02:42:23;;;;;;;15.37;4.60;;;17.20;97.30;;;;;;5050570;28;20557;-86
2021/07/18 02:44:49;;;;;;;17.70;4.57;;;17.20;97.30;;;;;;5050605;28;20539;-85
2021/07/18 02:47:14;;;;;;;10.63;5.10;;;17.20;97.30;;;;;;5050862;28;20202;-87
2021/07/18 02:49:40;;;;;;;9.80;4.77;;;17.20;97.30;;;;;;5050711;28;20211;-87
2021/07/18 02:52:08;;;;;;;11.10;5.20;;;17.10;97.30;;;;;;5051237;28;20199;-87
2021/07/18 02:54:35;;;;;;;11.10;5.30;;;17.10;97.30;;;;;;5051355;28;20272;-86
2021/07/18 02:57:00;;;;;;;11.33;4.70;;;17.10;97.30;;;;;;5051216;28;20418;-86
2021/07/18 02:59:26;;;;;;;10.20;4.50;;;17.00;97.30;;;;;;5051309;28;20434;-86
2021/07/18 03:01:51;;;;;;;13.50;4.53;;;17.00;97.30;;;;;;5052700;28;20257;-86
2021/07/18 03:04:17;;;;;;;10.83;6.10;;;17.00;97.30;;;;;;5054710;28;20634;-86
2021/07/18 03:06:43;;;;;;;6.77;4.57;;;17.00;97.30;;;;;;5056709;28;20179;-86
2021/07/18 03:09:09;;;;;;;11.40;4.30;;;16.90;97.30;;;;;;5055192;28;20182;-86
2021/07/18 03:11:34;;;;;;;9.37;5.93;;;16.90;97.30;;;;;;5054568;28;20242;-87
2021/07/18 03:14:00;;;;;;;10.70;4.50;;;16.90;97.30;;;;;;5048449;22;20898;-87
2021/07/18 03:16:25;;;;;;;12.73;4.17;;;16.90;97.30;;;;;;5024917;28;20715;-87
2021/07/18 03:18:51;;;;;;;9.60;4.57;;;16.90;97.30;;;;;;5027066;28;20202;-88
2021/07/18 03:21:17;;;;;;;8.60;4.77;;;16.80;97.30;;;;;;5010706;28;20265;-88
2021/07/18 03:23:42;;;;;;;17.27;5.03;;;16.80;97.30;;;;;;5010913;28;20674;-88
2021/07/18 03:26:08;;;;;;;10.93;4.40;;;16.80;97.30;;;;;;5024419;28;20268;-89
2021/07/18 03:28:33;;;;;;;8.57;4.83;;;16.80;97.30;;;;;;4999811;28;20189;-91
2021/07/18 03:30:59;;;;;;;10.20;4.30;;;16.80;97.30;;;;;;5000039;28;20198;-90
2021/07/18 03:33:25;;;;;;;13.63;4.63;;;16.80;97.30;;;;;;5007374;28;20185;-92
2021/07/18 03:35:52;;;;;;;9.63;4.40;;;16.80;97.30;;;;;;5014149;28;20185;-87
2021/07/18 03:38:18;;;;;;;8.40;4.70;;;16.70;97.30;;;;;;5012107;28;20192;-89
2021/07/18 03:40:44;;;;;;;12.37;5.23;;;16.70;97.30;;;;;;5015819;28;20509;-89
2021/07/18 03:43:10;;;;;;;13.23;4.50;;;16.70;97.30;;;;;;5042175;28;20456;-90
2021/07/18 03:45:35;;;;;;;9.20;4.30;;;16.70;97.30;;;;;;5002337;28;20173;-88
2021/07/18 03:48:01;;;;;;;14.77;5.37;;;16.70;97.30;;;;;;5004551;28;20596;-89
2021/07/18 03:50:26;;;;;;;17.57;4.93;;;16.70;97.30;;;;;;5011505;28;20228;-90
2021/07/18 03:52:53;;;;;;;14.23;4.83;;;16.70;97.30;;;;;;5018282;28;20184;-89
2021/07/18 03:55:19;;;;;;;10.90;4.70;;;16.60;97.30;;;;;;5013801;28;20182;-90
2021/07/18 03:57:45;;;;;;;7.20;4.47;;;16.60;97.30;;;;;;5021117;28;20423;-89
2021/07/18 04:00:11;;;;;;;12.33;4.80;;;16.60;97.30;;;;;;5049112;28;20272;-89
2021/07/18 04:02:37;;;;;;;10.37;4.70;;;16.60;97.30;;;;;;5010546;28;20209;-90
2021/07/18 04:05:03;;;;;;;5.73;4.47;;;16.50;97.30;;;;;;5014548;28;20951;-91
2021/07/18 04:07:32;;;;;;;12.13;4.60;;;16.50;97.30;;;;;;5010600;28;20602;-89
2021/07/18 04:10:00;;;;;;;16.20;5.30;;;16.50;97.30;;;;;;5018095;28;20853;-90
2021/07/18 04:12:25;;;;;;;9.13;4.73;;;16.50;97.30;;;;;;5012228;28;20450;-89
2021/07/18 04:14:51;;;;;;;10.37;5.13;;;16.50;97.30;;;;;;5018021;28;20994;-90
2021/07/18 04:17:17;;;;;;;14.40;4.90;;;16.50;97.30;;;;;;5017942;28;20184;-89
2021/07/18 04:19:42;;;;;;;12.90;5.13;;;16.50;97.30;;;;;;5018076;28;20180;-89
2021/07/18 04:22:08;;;;;;;12.80;5.90;;;16.50;97.30;;;;;;5017550;28;20644;-90
2021/07/18 04:24:33;;;;;;;20.07;4.80;;;16.50;97.30;;;;;;5014489;28;20207;-92
2021/07/18 04:26:59;;;;;;;11.03;5.67;;;16.50;97.30;;;;;;5016673;28;20193;-90
2021/07/18 04:29:25;;;;;;;9.83;5.40;;;16.50;97.30;;;;;;5017211;28;20181;-90
2021/07/18 04:31:50;;;;;;;18.43;6.20;;;16.50;97.30;;;;;;5032465;28;20227;-86
2021/07/18 04:34:16;;;;;;;10.30;4.90;;;16.50;97.30;;;;;;5050318;28;20697;-91
2021/07/18 04:36:41;;;;;;;11.50;4.83;;;16.50;97.30;;;;;;5017557;28;20176;-90
2021/07/18 04:39:07;;;;;;;12.50;5.03;;;16.60;97.30;;;;;;5001464;28;20177;-89
2021/07/18 04:41:34;;;;;;;11.47;5.20;;;16.60;97.30;;;;;;5001942;28;20588;-91
2021/07/18 04:44:00;;;;;;;8.10;4.30;;;16.60;97.30;;;;;;5007615;28;20447;-88
2021/07/18 04:46:25;;;;;;;10.80;5.07;;;16.60;97.30;;;;;;5010806;28;20512;-87
2021/07/18 04:48:51;;;;;;;11.83;5.40;;;16.60;97.30;;;;;;5017202;28;20222;-89
2021/07/18 04:51:17;;;;;;;13.10;5.77;;;16.60;97.30;;;;;;5017346;28;20196;-91
2021/07/18 04:53:43;;;;;;;12.50;4.90;;;16.60;97.30;;;;;;5001779;28;20177;-90
2021/07/18 04:56:09;;;;;;;11.00;5.33;;;16.60;97.30;;;;;;4997422;28;20423;-89
2021/07/18 04:58:34;;;;;;;14.77;5.50;;;16.70;97.30;;;;;;5014494;28;20494;-86
2021/07/18 05:01:00;;;;;;;14.93;5.63;;;16.70;97.30;;;;;;5016385;28;20425;-88
2021/07/18 05:03:26;;;;;;;12.40;5.80;;;16.70;97.30;;;;;;5016088;28;20645;-88
2021/07/18 05:05:51;;;;;;;12.57;5.93;;;16.70;97.30;;;;;;5016450;28;20168;-88
2021/07/18 05:08:17;;;;;;;12.50;6.10;;;16.80;97.30;;;;;;5012154;28;20180;-89
2021/07/18 05:10:42;;;;;;;11.73;5.80;;;16.80;97.30;;;;;;5003815;28;20340;-88
2021/07/18 05:13:08;;;;;;;11.33;5.77;;;16.80;97.30;;;;;;4997261;28;20228;-89
2021/07/18 05:15:34;;;;;;;11.63;5.90;;;16.80;97.30;;;;;;5012032;28;20180;-89
2021/07/18 05:18:11;;;;;;;11.83;5.70;;;16.90;97.30;;;;;;5002343;28;20180;-88
2021/07/18 05:20:38;;;;;;;16.63;5.70;;;16.90;97.30;;;;;;5010782;28;20443;-87
2021/07/18 05:23:03;;;;;;;12.57;5.43;;;16.90;97.30;;;;;;5015032;28;20458;-89
2021/07/18 05:25:29;;;;;;;12.50;6.10;;;17.00;97.30;;;;;;5001113;28;20996;-90
2021/07/18 05:27:54;;;;;;;12.37;5.87;;;17.00;97.30;;;;;;5007491;28;20640;-88
2021/07/18 05:30:20;;;;;;;14.07;5.67;;;17.10;97.30;;;;;;5012825;28;20602;-89
2021/07/18 05:32:45;;;;;;;15.13;6.60;;;17.10;97.30;;;;;;5015355;28;20188;-89
2021/07/18 05:35:13;;;;;;;10.00;6.10;;;17.10;97.30;;;;;;5014582;28;20238;-89
2021/07/18 05:37:38;;;;;;;13.70;6.90;;;17.20;97.30;;;;;;5006455;28;20188;-90
2021/07/18 05:40:09;;;;;;;14.23;6.80;;;17.20;97.30;;;;;;5011223;28;20494;-89
2021/07/18 05:42:35;;;;;;;15.77;6.80;;;17.30;97.30;;;;;;5010405;28;20683;-87
2021/07/18 05:45:04;;;;;;;14.10;7.07;;;17.30;97.30;;;;;;5011239;28;20677;-90
2021/07/18 05:47:32;;;;;;;15.53;7.10;;;17.30;97.30;;;;;;5040274;28;20503;-92
2021/07/18 05:49:58;;;;;;;10.37;7.60;;;17.40;97.30;;;;;;5015367;28;20430;-90
2021/07/18 05:52:23;;;;;;;13.07;8.20;;;17.40;97.30;;;;;;5038585;28;20440;-91
2021/07/18 05:54:49;;;;;;;16.30;9.17;;;17.50;97.30;;;;;;4995973;28;20210;-89
2021/07/18 05:57:14;;;;;;;17.13;9.20;;;17.50;97.30;;;;;;5004189;28;20216;-90
2021/07/18 05:59:40;;;;;;;16.57;8.00;;;17.50;97.30;;;;;;5001096;28;20192;-89
2021/07/18 06:02:06;;;;;;;21.30;8.80;;;17.60;97.30;;;;;;5012567;28;20200;-93
2021/07/18 06:04:31;;;;;;;11.10;8.00;;;17.60;97.30;;;;;;5016430;28;20259;-91
2021/07/18 06:06:57;;;;;;;19.60;8.70;;;17.70;97.30;;;;;;5027641;28;20177;-90
2021/07/18 06:09:22;;;;;;;14.27;8.10;;;17.70;97.30;;;;;;5009590;28;20204;-89
2021/07/18 06:11:48;;;;;;;20.83;10.10;;;17.70;97.30;;;;;;5014689;28;20196;-90
2021/07/18 06:14:14;;;;;;;14.93;8.10;;;17.70;97.30;;;;;;5016705;28;20248;-88
2021/07/18 06:16:40;;;;;;;15.90;8.80;;;17.70;97.30;;;;;;5031639;28;20178;-90
2021/07/18 06:19:05;;;;;;;16.60;10.07;;;17.70;97.30;;;;;;5022437;28;20182;-88
2021/07/18 06:21:31;;;;;;;16.00;8.80;;;17.70;97.30;;;;;;5008467;28;20560;-88
2021/07/18 06:23:57;;;;;;;28.87;8.10;;;17.70;97.30;;;;;;5018699;28;20232;-90
2021/07/18 06:26:22;;;;;;;12.63;8.20;;;17.80;97.30;;;;;;5015350;28;20697;-90
2021/07/18 06:28:48;;;;;;;16.33;7.80;;;17.90;97.30;;;;;;5031268;28;20439;-89
2021/07/18 06:31:14;;;;;;;17.60;8.90;;;18.00;97.30;;;;;;5013547;28;20253;-87
2021/07/18 06:33:39;;;;;;;14.13;8.20;;;18.10;97.30;;;;;;5014262;28;20187;-89
2021/07/18 06:36:05;;;;;;;10.10;6.90;;;18.30;97.30;;;;;;5015931;28;20742;-88
2021/07/18 06:38:31;;;;;;;12.50;8.00;;;18.40;97.30;;;;;;5010872;28;20180;-88
2021/07/18 06:40:56;;;;;;;14.70;7.20;;;18.50;97.30;;;;;;5025576;28;20211;-89
2021/07/18 06:43:22;;;;;;;14.80;8.50;;;18.50;97.30;;;;;;5009407;28;20209;-88
2021/07/18 06:45:48;;;;;;;18.60;8.00;;;18.50;97.30;;;;;;5014334;28;20169;-88
2021/07/18 06:48:13;;;;;;;15.17;7.80;;;18.50;97.30;;;;;;5011979;28;20263;-87
2021/07/18 06:50:39;;;;;;;13.10;6.73;;;18.60;97.30;;;;;;5006499;28;20199;-88
2021/07/18 06:53:05;;;;;;;14.10;7.77;;;18.60;97.30;;;;;;5010307;28;20579;-88
2021/07/18 06:55:30;;;;;;;15.20;8.80;;;18.70;97.30;;;;;;5016199;28;20194;-88
2021/07/18 06:57:56;;;;;;;11.13;7.60;;;18.70;97.30;;;;;;5047523;28;20242;-88
2021/07/18 07:00:22;;;;;;;12.10;7.80;;;18.80;97.30;;;;;;5008777;28;20181;-87
2021/07/18 07:02:48;;;;;;;13.37;7.80;;;18.80;97.30;;;;;;5007676;28;20200;-87
2021/07/18 07:05:17;;;;;;;12.17;8.20;;;18.80;97.30;;;;;;5016045;28;20439;-88
2021/07/18 07:07:49;;;;;;;16.47;7.77;;;18.90;97.30;;;;;;5031995;28;20790;-88
2021/07/18 07:10:16;;;;;;;17.63;6.70;;;19.00;97.30;;;;;;5029720;28;20820;-87
2021/07/18 07:12:42;;;;;;;14.40;8.23;;;19.10;97.30;;;;;;5015655;28;20435;-87
2021/07/18 07:15:09;;;;;;;12.70;7.67;;;19.10;97.30;;;;;;5043713;28;20541;-90
2021/07/18 07:17:35;;;;;;;15.00;7.03;;;19.10;97.30;;;;;;5025018;28;20788;-88
2021/07/18 07:20:03;;;;;;;12.30;6.30;;;19.20;97.30;;;;;;5021147;28;20450;-87
2021/07/18 07:22:29;;;;;;;10.33;7.70;;;19.40;97.30;;;;;;5017553;28;20463;-88
2021/07/18 07:24:54;;;;;;;12.80;7.60;;;19.50;97.30;;;;;;5017348;28;20482;-88
2021/07/18 07:27:20;;;;;;;15.50;8.20;;;19.40;97.30;;;;;;5004439;28;20185;-88
2021/07/18 07:29:45;;;;;;;13.13;7.97;;;19.30;97.30;;;;;;5003810;28;20185;-88
2021/07/18 07:32:11;;;;;;;12.73;7.70;;;19.30;97.30;;;;;;5036398;28;20279;-87
2021/07/18 07:34:36;;;;;;;11.07;7.17;;;19.30;97.30;;;;;;5010815;28;20673;-88
2021/07/18 07:37:02;;;;;;;12.60;7.60;;;19.30;97.30;;;;;;5000149;28;20208;-87
2021/07/18 07:39:28;;;;;;;14.70;7.20;;;19.30;97.30;;;;;;5010923;28;20185;-88
2021/07/18 07:41:53;;;;;;;10.10;6.27;;;19.30;97.30;;;;;;5005242;28;20619;-87
2021/07/18 07:44:19;;;;;;;13.00;7.67;;;19.30;97.30;;;;;;5013546;28;20216;-88
2021/07/18 07:46:45;;;;;;;10.57;7.30;;;19.40;97.30;;;;;;5006914;28;20205;-88
2021/07/18 07:49:11;;;;;;;13.10;6.63;;;19.40;97.30;;;;;;5009165;28;20204;-87
2021/07/18 07:51:37;;;;;;;11.67;7.40;;;19.40;97.30;;;;;;5012621;28;20753;-87
2021/07/18 07:54:03;;;;;;;10.90;6.33;;;19.50;97.30;;;;;;5027858;28;20540;-87
2021/07/18 07:56:29;;;;;;;11.23;6.23;;;19.60;97.30;;;;;;5040921;28;20460;-88
2021/07/18 07:58:54;;;;;;;14.77;7.33;;;19.80;97.30;;;;;;5007426;28;20492;-88
2021/07/18 08:01:20;;;;;;;7.80;6.13;;;19.80;97.30;;;;;;5005989;28;20705;-88
2021/07/18 08:03:46;;;;;;;13.70;6.70;;;19.90;97.30;;;;;;5011131;28;20208;-87
2021/07/18 08:06:11;;;;;;;11.30;6.60;;;19.90;97.30;;;;;;5030111;28;20187;-87
2021/07/18 08:08:37;;;;;;;16.67;6.80;;;19.90;97.30;;;;;;4999678;28;20183;-87
2021/07/18 08:11:03;;;;;;;15.00;7.03;;;20.00;97.30;;;;;;5003587;28;20289;-88
2021/07/18 08:13:29;;;;;;;12.83;6.50;;;20.00;97.30;;;;;;5008325;28;20260;-87
2021/07/18 08:15:55;;;;;;;11.37;6.73;;;20.10;97.30;;;;;;5006610;28;20424;-86
2021/07/18 08:18:20;;;;;;;11.60;6.30;;;20.20;97.30;;;;;;5009582;28;20218;-86
2021/07/18 08:20:46;;;;;;;8.03;5.80;;;20.20;97.30;;;;;;5017854;28;20199;-86
2021/07/18 08:23:11;;;;;;;8.43;5.80;;;20.30;97.30;;;;;;5043163;28;20198;-86
2021/07/18 08:25:37;;;;;;;9.83;5.40;;;20.50;97.30;;;;;;5008308;28;20231;-86
2021/07/18 08:28:03;;;;;;;11.00;6.03;;;20.50;97.30;;;;;;5034377;28;20185;-87
2021/07/18 08:30:29;;;;;;;9.67;5.70;;;20.70;97.30;;;;;;5011350;28;20419;-86
2021/07/18 08:32:54;;;;;;;6.47;5.47;;;20.70;97.30;;;;;;5016161;28;20188;-87
2021/07/18 08:35:20;;;;;;;7.03;5.00;;;20.80;97.30;;;;;;5013314;28;20538;-87
2021/07/18 08:37:46;;;;;;;8.00;5.33;;;20.90;97.30;;;;;;5012741;28;20181;-87
2021/07/18 08:40:13;;;;;;;14.13;5.40;;;20.90;97.30;;;;;;5014458;28;20854;-87
2021/07/18 08:42:39;;;;;;;11.23;5.27;;;21.00;97.30;;;;;;5014362;28;20243;-87
2021/07/18 08:45:09;;;;;;;9.80;5.17;;;21.00;97.30;;;;;;5025187;28;20552;-87
2021/07/18 08:47:36;;;;;;;7.43;4.67;;;21.10;97.30;;;;;;5029823;28;20427;-86
2021/07/18 08:50:03;;;;;;;11.40;6.80;;;21.10;97.30;;;;;;5021988;28;20406;-85
2021/07/18 08:52:29;;;;;;;9.70;5.27;;;21.20;97.30;;;;;;5055947;28;20825;-86
2021/07/18 08:54:55;;;;;;;14.43;5.30;;;21.30;97.30;;;;;;5018742;28;20412;-84
2021/07/18 08:57:25;;;;;;;8.00;4.53;;;21.40;97.30;;;;;;5038625;28;20954;-84
2021/07/18 08:59:51;;;;;;;12.37;4.97;;;21.50;97.30;;;;;;5033638;28;20179;-85
2021/07/18 09:02:18;;;;;;;8.03;4.90;;;21.60;97.30;;;;;;5016485;28;20444;-84
2021/07/18 09:04:44;;;;;;;8.40;4.37;;;21.70;97.30;;;;;;5012661;28;20427;-85
2021/07/18 09:07:14;;;;;;;7.27;4.70;;;21.70;97.30;;;;;;5015559;28;20502;-85
2021/07/18 09:09:40;;;;;;;9.67;4.50;;;21.80;97.30;;;;;;5049117;28;20423;-84
2021/07/18 09:12:08;;;;;;;6.97;4.07;;;21.90;97.30;;;;;;5038676;28;20984;-85
2021/07/18 09:14:40;;;;;;;8.40;5.03;;;22.00;97.30;;;;;;5019184;28;20681;-85
2021/07/18 09:17:11;;;;;;;9.03;4.63;;;22.00;97.30;;;;;;5028600;28;20410;-85
2021/07/18 09:19:38;;;;;;;7.07;3.80;;;22.00;97.30;;;;;;5043281;28;20419;-85
2021/07/18 09:22:04;;;;;;;7.60;3.77;;;22.00;97.30;;;;;;5018156;28;20530;-85
2021/07/18 09:24:45;;;;;;;5.00;3.97;;;22.10;97.30;;;;;;5025404;28;20561;-85
2021/07/18 09:27:33;;;;;;;8.93;4.50;;;22.20;97.30;;;;;;5015765;28;20183;-85
2021/07/18 09:30:13;;;;;;;8.20;3.50;;;22.30;97.30;;;;;;5067919;22;20566;-85
2021/07/18 09:32:41;;;;;;;7.50;3.70;;;22.40;97.30;;;;;;5072118;28;20524;-86
2021/07/18 09:35:10;;;;;;;6.30;3.50;;;22.50;97.30;;;;;;5071701;28;20436;-86
2021/07/18 09:37:38;;;;;;;22.37;4.40;;;22.60;97.30;;;;;;5072958;28;20410;-87
2021/07/18 09:40:14;;;;;;;6.83;3.80;;;22.70;97.30;;;;;;5073013;28;20413;-87
2021/07/18 09:42:42;;;;;;;5.77;3.70;;;22.70;97.30;;;;;;5072339;28;20594;-87
2021/07/18 09:45:19;;;;;;;4.80;3.50;;;22.70;97.30;;;;;;5073162;28;20409;-87
2021/07/18 09:47:58;;;;;;;9.07;4.10;;;22.80;97.30;;;;;;5073328;28;20414;-87
2021/07/18 09:50:38;;;;;;;6.17;3.40;;;22.80;97.30;;;;;;5072417;28;20462;-86
2021/07/18 09:53:13;;;;;;;4.23;3.33;;;22.90;97.30;;;;;;5072411;28;20431;-86
2021/07/18 09:55:54;;;;;;;3.93;3.10;;;23.00;97.30;;;;;;5070954;28;20412;-87
2021/07/18 09:58:23;;;;;;;8.03;3.47;;;23.10;97.30;;;;;;5072250;28;20405;-87
2021/07/18 10:00:49;;;;;;;5.70;3.50;;;23.10;97.30;;;;;;5071883;28;20434;-87
2021/07/18 10:03:23;;;;;;;5.00;3.70;;;23.20;97.30;;;;;;5071442;28;20456;-87
2021/07/18 10:06:11;;;;;;;7.20;3.77;;;23.20;97.30;;;;;;5072111;28;20259;-87
2021/07/18 10:08:49;;;;;;;6.43;3.70;;;23.20;96.70;;;;;;5072372;28;20422;-87
2021/07/18 10:11:19;;;;;;;6.60;3.77;;;23.30;96.60;;;;;;5073951;28;20416;-87
2021/07/18 10:13:49;;;;;;;3.03;2.90;;;23.30;96.40;;;;;;5076027;28;20451;-86
2021/07/18 10:16:16;;;;;;;7.30;3.67;;;23.40;97.00;;;;;;5076914;28;20441;-86
2021/07/18 10:18:44;;;;;;;6.93;2.60;;;23.50;97.20;;;;;;5075866;28;20482;-87
2021/07/18 10:21:13;;;;;;;5.17;3.57;;;23.50;96.80;;;;;;5075923;28;20437;-86
2021/07/18 10:23:41;;;;;;;10.40;3.80;;;23.60;97.10;;;;;;5076989;28;20811;-87
2021/07/18 10:26:08;;;;;;;5.30;2.87;;;23.70;95.80;;;;;;5075581;28;20795;-87
2021/07/18 10:28:36;;;;;;;3.97;3.57;;;23.70;96.20;;;;;;5076922;28;20412;-87
2021/07/18 10:31:12;;;;;;;8.33;3.50;;;23.80;95.80;;;;;;5073653;28;20465;-87
2021/07/18 10:33:42;;;;;;;4.80;3.30;;;23.90;94.50;;;;;;5075374;28;20425;-87
2021/07/18 10:36:08;;;;;;;3.30;3.13;;;24.00;94.80;;;;;;5084249;28;20469;-87
2021/07/18 10:38:34;;;;;;;3.50;2.80;;;24.00;94.90;;;;;;5096703;28;20458;-87
2021/07/18 10:41:01;;;;;;;4.47;3.63;;;24.00;94.10;;;;;;5095784;28;20489;-87
2021/07/18 10:43:47;;;;;;;4.80;3.00;;;24.10;94.80;;;;;;5096023;28;20466;-87
2021/07/18 10:46:33;;;;;;;3.70;2.70;;;24.20;94.30;;;;;;5096095;28;20909;-87
2021/07/18 10:48:59;;;;;;;4.83;3.03;;;24.30;94.10;;;;;;5095510;28;20420;-87
2021/07/18 10:51:36;;;;;;;16.43;3.63;;;24.40;92.20;;;;;;5095669;28;20768;-87
2021/07/18 10:54:17;;;;;;;4.77;3.10;;;24.40;92.30;;;;;;5096525;28;20654;-87
2021/07/18 10:56:51;;;;;;;7.30;2.80;;;24.50;92.80;;;;;;5095839;28;20408;-87
2021/07/18 10:59:37;;;;;;;5.50;3.27;;;24.60;88.70;;;;;;5095312;28;20789;-87
2021/07/18 11:02:16;;;;;;;4.87;3.10;;;24.60;89.30;;;;;;5095716;28;20481;-89
2021/07/18 11:04:51;;;;;;;4.80;3.50;;;24.70;90.70;;;;;;5096311;28;20404;-87
2021/07/18 11:07:20;;;;;;;5.27;3.20;;;24.80;91.50;;;;;;5097168;28;20419;-86
2021/07/18 11:09:50;;;;;;;3.90;3.20;;;24.90;89.90;;;;;;5095693;28;20431;-88
2021/07/18 11:12:23;;;;;;;3.83;3.10;;;25.00;89.70;;;;;;5094994;28;20509;-87
2021/07/18 11:14:49;;;;;;;7.83;3.10;;;25.00;90.50;;;;;;5095143;28;20466;-87
2021/07/18 11:17:28;;;;;;;3.60;3.20;;;25.10;89.40;;;;;;5097092;28;20401;-87
2021/07/18 11:19:54;;;;;;;3.83;3.30;;;25.10;89.60;;;;;;5092159;28;20163;-87
2021/07/18 11:22:40;;;;;;;3.73;3.20;;;25.10;89.30;;;;;;5073702;28;20804;-86
2021/07/18 11:25:06;;;;;;;4.07;2.70;;;25.10;87.80;;;;;;5075001;28;20202;-87
2021/07/18 11:27:33;;;;;;;3.50;3.13;;;25.10;87.40;;;;;;5075135;28;20446;-87
2021/07/18 11:30:04;;;;;;;3.43;3.00;;;25.10;88.80;;;;;;5075539;28;20484;-87
2021/07/18 11:32:32;;;;;;;5.00;3.07;;;25.10;88.00;;;;;;5077092;28;20990;-88
2021/07/18 11:34:59;;;;;;;2.97;2.70;;;25.10;88.80;;;;;;5075090;28;20489;-87
2021/07/18 11:37:27;;;;;;;4.53;3.23;;;25.20;90.00;;;;;;5075550;28;20418;-87
2021/07/18 11:40:04;;;;;;;3.90;2.93;;;25.30;87.90;;;;;;5075447;28;20417;-87
2021/07/18 11:42:29;;;;;;;5.03;3.10;;;25.40;87.70;;;;;;5075624;28;20995;-87
2021/07/18 11:44:55;;;;;;;3.60;2.80;;;25.50;88.00;;;;;;5076267;28;20437;-88
2021/07/18 11:47:27;;;;;;;4.67;2.97;;;25.60;87.20;;;;;;5075032;28;20207;-88
2021/07/18 11:49:53;;;;;;;4.30;2.80;;;25.60;88.00;;;;;;5075494;28;20168;-87
2021/07/18 11:52:22;;;;;;;5.53;2.87;;;25.70;88.00;;;;;;5075000;28;20502;-87
2021/07/18 11:54:47;;;;;;;3.10;2.90;;;25.80;88.00;;;;;;5075542;28;20265;-87
2021/07/18 11:57:17;;;;;;;2.97;2.80;;;25.80;87.80;;;;;;5075711;28;20449;-87
2021/07/18 11:59:45;;;;;;;3.30;3.10;;;25.90;86.40;;;;;;5076514;28;20443;-87
2021/07/18 12:02:12;;;;;;;5.93;3.33;;;25.90;87.40;;;;;;5075740;28;20465;-87
2021/07/18 12:04:40;;;;;;;5.20;2.87;;;25.90;86.30;;;;;;5074789;28;20448;-88
2021/07/18 12:07:11;;;;;;;4.53;2.90;;;26.00;87.20;;;;;;5074899;28;20921;-88
2021/07/18 12:09:47;;;;;;;7.73;3.07;;;26.00;86.40;;;;;;5074245;28;20751;-87
2021/07/18 12:12:16;;;;;;;4.50;2.70;;;26.10;87.30;;;;;;5075036;28;20465;-88
2021/07/18 12:14:43;;;;;;;3.20;2.43;;;26.10;85.20;;;;;;5074840;28;20410;-88
2021/07/18 12:17:11;;;;;;;3.77;2.63;;;26.20;85.40;;;;;;5074535;28;20417;-88
2021/07/18 12:19:49;;;;;;;3.90;2.97;;;26.30;85.90;;;;;;5075730;28;20499;-88
2021/07/18 12:22:19;;;;;;;3.43;2.93;;;26.30;86.20;;;;;;5074197;28;20429;-88
2021/07/18 12:24:50;;;;;;;4.83;2.77;;;26.30;86.00;;;;;;5073634;28;20439;-88
2021/07/18 12:27:19;;;;;;;2.80;2.60;;;26.40;87.00;;;;;;5072592;28;20869;-88
2021/07/18 12:29:51;;;;;;;3.23;2.73;;;26.40;87.30;;;;;;5074487;28;20413;-89
2021/07/18 12:32:18;;;;;;;5.37;2.40;;;26.50;85.60;;;;;;5074194;28;20445;-89
2021/07/18 12:34:47;;;;;;;3.60;3.07;;;26.60;84.20;;;;;;5072776;28;20413;-88
2021/07/18 12:37:36;;;;;;;4.03;3.10;;;26.60;84.50;;;;;;5074053;28;20466;-87
2021/07/18 12:40:04;;;;;;;4.70;3.10;;;26.60;85.30;;;;;;5073690;28;20505;-89
2021/07/18 12:42:36;;;;;;;7.40;3.60;;;26.70;83.80;;;;;;5073425;28;21102;-88